Time;durP1;ratioP1;P1;durP2;ratioP2;P2;SDS_P1;SDS_P2;PMS_P1;PMS_P2;Temp;Humidity;BMP_temperature;BMP_pressure;BME280_temperature;BME280_humidity;BME280_pressure;Samples;Min_cycle;Max_cycle;Signal;HPM_P1;HPM_P2
2021/11/25 00:00:22;;;;;;;3.10;2.90;;;17.10;55.60;;;;;;4938913;29;20491;-78
2021/11/25 00:02:50;;;;;;;3.50;2.90;;;17.10;55.70;;;;;;4933873;29;20464;-77
2021/11/25 00:05:18;;;;;;;3.37;3.10;;;17.10;55.70;;;;;;4928906;29;20468;-77
2021/11/25 00:07:46;;;;;;;2.90;2.70;;;17.10;55.60;;;;;;4933253;29;20488;-78
2021/11/25 00:10:16;;;;;;;3.27;3.07;;;17.10;55.60;;;;;;4934563;29;20478;-78
2021/11/25 00:12:44;;;;;;;3.50;3.20;;;17.10;55.70;;;;;;4935721;29;20476;-77
2021/11/25 00:15:12;;;;;;;7.00;3.07;;;17.10;55.60;;;;;;4936296;29;20487;-77
2021/11/25 00:17:41;;;;;;;3.00;2.80;;;17.10;55.70;;;;;;4931606;29;20480;-78
2021/11/25 00:22:50;;;;;;;2.60;2.50;;;17.10;55.70;;;;;;5401990;23;20493;-77
2021/11/25 00:25:19;;;;;;;3.13;2.83;;;17.10;55.60;;;;;;4951864;29;20556;-77
2021/11/25 00:27:47;;;;;;;3.10;2.90;;;17.00;55.60;;;;;;4951334;28;20542;-77
2021/11/25 00:30:15;;;;;;;3.60;3.30;;;17.10;55.60;;;;;;4950432;29;20494;-77
2021/11/25 00:32:43;;;;;;;5.03;3.10;;;17.00;55.60;;;;;;4950022;28;20997;-76
2021/11/25 00:35:12;;;;;;;3.80;3.47;;;17.00;55.70;;;;;;4947793;29;20565;-76
2021/11/25 00:37:40;;;;;;;3.50;3.20;;;17.00;55.80;;;;;;4947566;29;20472;-76
2021/11/25 00:40:10;;;;;;;3.83;3.53;;;17.00;55.70;;;;;;4953795;28;20538;-75
2021/11/25 00:42:40;;;;;;;3.30;3.00;;;17.00;55.70;;;;;;4952804;28;20519;-76
2021/11/25 00:45:09;;;;;;;3.50;3.20;;;17.00;55.60;;;;;;4952859;28;20518;-76
2021/11/25 00:47:37;;;;;;;3.50;3.20;;;17.00;55.70;;;;;;4945906;28;20494;-76
2021/11/25 00:50:06;;;;;;;3.50;3.20;;;17.00;55.60;;;;;;4946489;28;20495;-76
2021/11/25 00:52:34;;;;;;;2.90;2.70;;;17.00;55.60;;;;;;4943516;28;20503;-76
2021/11/25 00:55:02;;;;;;;3.53;3.27;;;17.00;55.70;;;;;;4956694;28;20574;-75
2021/11/25 00:57:30;;;;;;;3.50;3.30;;;17.00;55.70;;;;;;4948354;28;20519;-75
2021/11/25 00:59:59;;;;;;;3.50;3.30;;;17.00;55.60;;;;;;4958784;28;20547;-76
2021/11/25 01:02:27;;;;;;;3.47;3.27;;;17.00;55.60;;;;;;4947273;28;20565;-76
2021/11/25 01:04:55;;;;;;;3.50;3.30;;;17.00;55.80;;;;;;4953012;28;20538;-77
2021/11/25 01:07:23;;;;;;;3.70;3.47;;;16.90;55.60;;;;;;4945879;28;20576;-78
2021/11/25 01:09:51;;;;;;;3.53;3.30;;;17.00;55.70;;;;;;4953285;28;20487;-79
2021/11/25 01:12:20;;;;;;;3.80;3.50;;;17.00;55.70;;;;;;4951792;28;20503;-78
2021/11/25 01:14:48;;;;;;;3.67;3.33;;;17.00;55.80;;;;;;4955376;28;20499;-78
2021/11/25 01:17:17;;;;;;;3.80;3.50;;;17.00;55.70;;;;;;4953801;28;20529;-78
2021/11/25 01:19:45;;;;;;;3.63;3.43;;;17.00;55.60;;;;;;4953569;28;20443;-77
2021/11/25 01:22:13;;;;;;;4.90;3.67;;;17.00;55.60;;;;;;4951676;28;20479;-78
2021/11/25 01:24:42;;;;;;;5.23;3.50;;;17.00;55.50;;;;;;4954453;28;20450;-78
2021/11/25 01:27:10;;;;;;;4.27;3.87;;;17.00;55.60;;;;;;4955260;29;20446;-80
2021/11/25 01:29:38;;;;;;;4.40;4.00;;;17.00;55.60;;;;;;4955418;28;20520;-78
2021/11/25 01:32:07;;;;;;;4.47;4.00;;;16.90;55.40;;;;;;4954807;29;20447;-78
2021/11/25 01:34:37;;;;;;;4.07;3.67;;;16.90;55.60;;;;;;4953340;28;20506;-78
2021/11/25 01:37:05;;;;;;;3.70;3.40;;;16.90;55.60;;;;;;4952962;29;20495;-78
2021/11/25 01:39:32;;;;;;;4.70;3.50;;;16.90;55.60;;;;;;4954767;28;20529;-78
2021/11/25 01:42:01;;;;;;;4.90;3.67;;;16.90;55.60;;;;;;4954272;28;20530;-78
2021/11/25 01:44:29;;;;;;;4.00;3.47;;;16.90;55.60;;;;;;4955084;28;20467;-78
2021/11/25 01:46:57;;;;;;;4.10;3.80;;;16.90;55.60;;;;;;4950763;28;20526;-79
2021/11/25 01:49:25;;;;;;;4.30;3.20;;;16.90;55.70;;;;;;4955112;28;20458;-78
2021/11/25 01:51:54;;;;;;;4.10;3.80;;;16.90;55.60;;;;;;4950247;28;20514;-78
2021/11/25 01:54:23;;;;;;;4.17;3.87;;;16.90;55.60;;;;;;4954698;29;20546;-78
2021/11/25 01:56:51;;;;;;;3.83;3.50;;;16.90;55.50;;;;;;4955089;28;20453;-78
2021/11/25 01:59:19;;;;;;;3.97;3.57;;;16.90;55.60;;;;;;4954758;28;20550;-78
2021/11/25 02:01:47;;;;;;;4.00;3.70;;;16.90;55.70;;;;;;4954937;28;20467;-78
2021/11/25 02:04:15;;;;;;;4.20;3.90;;;16.90;55.70;;;;;;4954724;29;20454;-78
2021/11/25 02:06:43;;;;;;;3.63;3.33;;;16.90;55.70;;;;;;4954793;29;20545;-78
2021/11/25 02:09:13;;;;;;;3.50;3.30;;;16.90;55.80;;;;;;4950399;28;20542;-77
2021/11/25 02:11:41;;;;;;;4.40;3.60;;;16.90;55.70;;;;;;4953774;28;20459;-78
2021/11/25 02:14:09;;;;;;;3.63;3.33;;;16.90;55.60;;;;;;4954476;28;20502;-78
2021/11/25 02:16:39;;;;;;;5.03;4.13;;;16.90;55.60;;;;;;4954592;28;20517;-78
2021/11/25 02:19:07;;;;;;;4.37;3.97;;;16.90;55.60;;;;;;4954414;28;20538;-78
2021/11/25 02:21:37;;;;;;;4.63;4.07;;;16.90;55.70;;;;;;4954292;28;20453;-78
2021/11/25 02:24:06;;;;;;;4.33;4.03;;;16.80;55.60;;;;;;4954751;28;20446;-78
2021/11/25 02:26:33;;;;;;;4.50;4.07;;;16.80;55.70;;;;;;4951921;29;20579;-78
2021/11/25 02:29:03;;;;;;;3.93;3.63;;;16.80;56.20;;;;;;4954169;28;20545;-78
2021/11/25 02:31:31;;;;;;;4.33;3.97;;;16.80;55.60;;;;;;4954208;28;20435;-78
2021/11/25 02:33:59;;;;;;;4.77;4.20;;;16.80;55.60;;;;;;4954216;29;20494;-78
2021/11/25 02:36:27;;;;;;;4.60;4.10;;;16.80;55.80;;;;;;4954199;29;20501;-78
2021/11/25 02:38:58;;;;;;;3.90;3.53;;;16.80;55.60;;;;;;4954259;29;20457;-78
2021/11/25 02:41:26;;;;;;;4.57;4.17;;;16.80;55.70;;;;;;4953961;28;20538;-78
2021/11/25 02:43:56;;;;;;;4.23;3.80;;;16.80;55.70;;;;;;4949756;29;20582;-78
2021/11/25 02:46:24;;;;;;;4.20;3.80;;;16.80;55.60;;;;;;4951908;28;20965;-78
2021/11/25 02:48:53;;;;;;;4.60;4.17;;;16.80;55.60;;;;;;4954254;29;20497;-78
2021/11/25 02:51:22;;;;;;;4.40;4.00;;;16.80;55.70;;;;;;4953898;28;20534;-78
2021/11/25 02:53:50;;;;;;;4.27;3.97;;;16.80;55.40;;;;;;4954095;28;20439;-78
2021/11/25 02:56:21;;;;;;;4.40;4.00;;;16.80;55.60;;;;;;4953749;29;20554;-77
2021/11/25 02:58:50;;;;;;;4.57;4.17;;;16.80;55.70;;;;;;4947072;28;20571;-78
2021/11/25 03:01:19;;;;;;;5.40;4.50;;;16.80;56.30;;;;;;4950205;28;21033;-78
2021/11/25 03:03:47;;;;;;;3.97;3.67;;;16.80;55.70;;;;;;4949593;28;20490;-78
2021/11/25 03:06:15;;;;;;;4.77;4.13;;;16.80;55.80;;;;;;4953147;28;20553;-78
2021/11/25 03:08:44;;;;;;;3.53;3.23;;;16.80;55.70;;;;;;4954280;29;20485;-77
2021/11/25 03:11:18;;;;;;;4.47;4.07;;;16.80;55.70;;;;;;4953465;28;20514;-78
2021/11/25 03:13:49;;;;;;;4.60;4.10;;;16.80;55.70;;;;;;4953475;28;20559;-78
2021/11/25 03:16:17;;;;;;;3.70;3.40;;;16.80;55.60;;;;;;4953724;28;20929;-78
2021/11/25 03:18:45;;;;;;;3.97;3.67;;;16.80;55.60;;;;;;4952233;29;20535;-77
2021/11/25 03:21:15;;;;;;;3.87;3.57;;;16.80;55.80;;;;;;4953839;28;20450;-78
2021/11/25 03:23:44;;;;;;;5.30;4.37;;;16.70;55.60;;;;;;4956894;28;20443;-78
2021/11/25 03:26:12;;;;;;;4.70;4.20;;;16.70;55.60;;;;;;4957429;29;20487;-78
2021/11/25 03:28:43;;;;;;;4.50;3.60;;;16.80;55.70;;;;;;4957804;28;20519;-77
2021/11/25 03:31:13;;;;;;;5.20;4.37;;;16.70;55.50;;;;;;4957772;28;20470;-78
2021/11/25 03:33:41;;;;;;;4.17;3.80;;;16.70;55.60;;;;;;4954883;28;20510;-78
2021/11/25 03:36:10;;;;;;;5.63;4.10;;;16.70;55.70;;;;;;4957440;29;20518;-78
2021/11/25 03:38:37;;;;;;;4.80;4.13;;;16.70;55.50;;;;;;4957484;29;20555;-78
2021/11/25 03:41:07;;;;;;;5.10;4.63;;;16.70;55.70;;;;;;4957837;29;20534;-78
2021/11/25 03:43:35;;;;;;;4.10;3.80;;;16.70;55.90;;;;;;4957507;28;20541;-78
2021/11/25 03:46:03;;;;;;;4.57;4.17;;;16.60;55.60;;;;;;4957344;29;20473;-78
2021/11/25 03:48:32;;;;;;;4.50;4.10;;;16.60;55.80;;;;;;4952891;28;20451;-78
2021/11/25 03:51:01;;;;;;;5.23;4.73;;;16.70;55.70;;;;;;4954123;29;20546;-78
2021/11/25 03:53:29;;;;;;;4.30;4.00;;;16.60;55.60;;;;;;4956865;28;21060;-78
2021/11/25 03:55:58;;;;;;;4.63;4.23;;;16.60;55.70;;;;;;4956981;29;20485;-78
2021/11/25 03:58:26;;;;;;;4.73;4.30;;;16.60;55.70;;;;;;4957049;29;20486;-78
2021/11/25 04:00:54;;;;;;;7.13;4.43;;;16.60;55.70;;;;;;4957231;29;20450;-78
2021/11/25 04:03:22;;;;;;;4.97;4.47;;;16.60;55.80;;;;;;4956886;28;20553;-78
2021/11/25 04:05:51;;;;;;;5.27;4.47;;;16.60;55.80;;;;;;4956870;29;20470;-78
2021/11/25 04:08:20;;;;;;;4.83;4.33;;;16.60;55.80;;;;;;4954878;28;20454;-78
2021/11/25 04:10:48;;;;;;;5.03;4.53;;;16.60;55.90;;;;;;4956648;28;21032;-77
2021/11/25 04:13:16;;;;;;;6.10;4.97;;;16.60;55.80;;;;;;4953273;28;20459;-77
2021/11/25 04:15:44;;;;;;;5.30;4.80;;;16.60;55.80;;;;;;4956819;29;20435;-78
2021/11/25 04:18:12;;;;;;;4.97;4.47;;;16.60;55.70;;;;;;4956574;29;20538;-78
2021/11/25 04:20:40;;;;;;;6.10;5.30;;;16.50;55.70;;;;;;4956921;28;20447;-78
2021/11/25 04:23:10;;;;;;;4.90;4.50;;;16.60;55.70;;;;;;4956799;28;20566;-78
2021/11/25 04:25:38;;;;;;;5.33;4.83;;;16.50;55.60;;;;;;4954130;28;20467;-78
2021/11/25 04:28:06;;;;;;;6.37;5.10;;;16.50;55.60;;;;;;4956589;28;20459;-78
2021/11/25 04:30:53;;;;;;;6.00;5.20;;;16.50;55.70;;;;;;4956533;28;20439;-78
2021/11/25 04:36:06;;;;;;;6.60;5.33;;;16.40;55.50;;;;;;4956038;28;20481;-78
2021/11/25 04:38:36;;;;;;;6.90;5.10;;;16.40;55.80;;;;;;4955541;29;20506;-78
2021/11/25 04:41:04;;;;;;;5.60;5.10;;;16.50;55.70;;;;;;4951060;28;20455;-78
2021/11/25 04:43:32;;;;;;;6.60;5.60;;;16.40;55.70;;;;;;4956154;28;20498;-78
2021/11/25 04:46:00;;;;;;;5.73;5.23;;;16.40;55.60;;;;;;4954248;28;20542;-78
2021/11/25 04:48:28;;;;;;;5.10;4.60;;;16.40;55.80;;;;;;4953915;28;20829;-78
2021/11/25 04:50:57;;;;;;;7.17;4.90;;;16.40;55.60;;;;;;4955965;28;20435;-77
2021/11/25 04:53:25;;;;;;;6.87;5.23;;;16.30;55.60;;;;;;4956054;28;20459;-78
2021/11/25 04:55:55;;;;;;;5.63;5.10;;;16.30;55.70;;;;;;4955997;28;20439;-78
2021/11/25 04:58:23;;;;;;;5.30;4.80;;;16.40;55.90;;;;;;4954385;29;20463;-78
2021/11/25 05:00:51;;;;;;;5.30;4.80;;;16.40;55.80;;;;;;4951291;28;20961;-78
2021/11/25 05:03:20;;;;;;;6.63;5.37;;;16.40;55.70;;;;;;4955244;28;20463;-78
2021/11/25 05:05:48;;;;;;;5.13;4.63;;;16.30;55.80;;;;;;4953461;28;20451;-78
2021/11/25 05:08:16;;;;;;;6.30;5.13;;;16.40;55.90;;;;;;4955651;28;20559;-78
2021/11/25 05:10:44;;;;;;;4.80;4.40;;;16.30;55.70;;;;;;4954851;29;21016;-78
2021/11/25 05:13:14;;;;;;;6.40;5.47;;;16.30;55.80;;;;;;4955791;28;20995;-78
2021/11/25 05:15:42;;;;;;;11.70;5.30;;;16.40;55.80;;;;;;4952206;28;20451;-78
2021/11/25 05:18:10;;;;;;;6.50;5.60;;;16.30;55.80;;;;;;4955679;29;20479;-78
2021/11/25 05:20:38;;;;;;;7.50;5.63;;;16.30;55.90;;;;;;4955534;28;20474;-78
2021/11/25 05:23:12;;;;;;;6.53;5.00;;;16.30;55.90;;;;;;4955608;28;20548;-78
2021/11/25 05:25:40;;;;;;;7.97;5.70;;;16.30;56.00;;;;;;4955641;29;20546;-78
2021/11/25 05:28:08;;;;;;;6.07;5.07;;;16.30;56.00;;;;;;4955730;28;20521;-78
2021/11/25 05:30:39;;;;;;;5.50;4.80;;;16.30;55.80;;;;;;4953895;28;20534;-78
2021/11/25 05:33:07;;;;;;;5.77;5.17;;;16.30;55.80;;;;;;4952776;28;20558;-78
2021/11/25 05:35:35;;;;;;;7.00;5.90;;;16.30;55.80;;;;;;4955535;29;20443;-78
2021/11/25 05:38:04;;;;;;;7.13;5.80;;;16.40;55.90;;;;;;4955309;28;20558;-78
2021/11/25 05:40:32;;;;;;;7.60;5.73;;;16.40;55.70;;;;;;4955369;28;20443;-78
2021/11/25 05:43:00;;;;;;;5.53;5.00;;;16.40;55.90;;;;;;4955000;28;20822;-78
2021/11/25 05:45:28;;;;;;;6.30;5.27;;;16.40;55.80;;;;;;4954806;28;20474;-77
2021/11/25 05:47:58;;;;;;;7.27;5.30;;;16.40;55.80;;;;;;4953071;28;20535;-77
2021/11/25 05:50:26;;;;;;;5.87;5.27;;;16.30;55.80;;;;;;4955263;29;20529;-78
2021/11/25 05:52:55;;;;;;;7.27;5.27;;;16.30;55.70;;;;;;4954755;28;20494;-77
2021/11/25 05:55:25;;;;;;;5.90;5.30;;;16.30;55.80;;;;;;4955346;28;20503;-78
2021/11/25 05:57:53;;;;;;;7.50;6.10;;;16.30;55.70;;;;;;4954976;29;20937;-77
2021/11/25 06:00:21;;;;;;;7.07;5.47;;;16.30;55.80;;;;;;4954916;28;20530;-78
2021/11/25 06:02:49;;;;;;;6.50;5.47;;;16.30;56.00;;;;;;4954647;28;20546;-77
2021/11/25 06:05:22;;;;;;;6.00;5.30;;;16.30;55.70;;;;;;4952210;28;20733;-78
2021/11/25 06:07:50;;;;;;;6.60;5.33;;;16.30;55.80;;;;;;4953788;29;20447;-78
2021/11/25 06:10:20;;;;;;;5.50;5.00;;;16.30;55.80;;;;;;4955111;28;20525;-78
2021/11/25 06:12:48;;;;;;;5.97;5.30;;;16.30;55.90;;;;;;4954769;28;20502;-77
2021/11/25 06:15:16;;;;;;;9.03;5.80;;;16.30;55.80;;;;;;4954768;28;20451;-78
2021/11/25 06:17:44;;;;;;;6.33;5.37;;;16.30;55.80;;;;;;4955197;29;20561;-79
2021/11/25 06:20:13;;;;;;;7.03;5.87;;;16.30;55.80;;;;;;4955251;28;20478;-79
2021/11/25 06:22:43;;;;;;;9.00;6.37;;;16.30;55.90;;;;;;4954701;28;20530;-78
2021/11/25 06:25:12;;;;;;;10.57;7.00;;;16.30;55.80;;;;;;4949439;29;20486;-79
2021/11/25 06:27:40;;;;;;;7.40;6.27;;;16.30;55.70;;;;;;4954644;29;20467;-79
2021/11/25 06:30:10;;;;;;;7.40;5.90;;;16.30;56.00;;;;;;4954814;29;20489;-79
2021/11/25 06:32:38;;;;;;;7.10;5.97;;;16.30;55.70;;;;;;4954833;28;21065;-79
2021/11/25 06:35:09;;;;;;;6.53;5.73;;;16.30;55.80;;;;;;4955190;29;20438;-78
2021/11/25 06:37:38;;;;;;;9.33;6.80;;;16.30;55.80;;;;;;4954895;29;20558;-79
2021/11/25 06:40:08;;;;;;;7.40;6.40;;;16.30;56.40;;;;;;4954998;29;20535;-79
2021/11/25 06:42:36;;;;;;;9.27;7.00;;;16.30;55.70;;;;;;4950031;28;20570;-79
2021/11/25 06:45:05;;;;;;;8.07;6.97;;;16.30;55.80;;;;;;4954940;29;20440;-79
2021/11/25 06:47:33;;;;;;;11.47;7.10;;;16.30;55.70;;;;;;4955099;29;20576;-79
2021/11/25 06:50:01;;;;;;;8.13;7.00;;;16.30;55.80;;;;;;4955713;29;21032;-79
2021/11/25 06:52:29;;;;;;;10.17;7.40;;;16.30;55.70;;;;;;4954065;28;20502;-79
2021/11/25 06:54:57;;;;;;;9.77;7.30;;;16.30;55.60;;;;;;4954736;29;20530;-79
2021/11/25 06:57:27;;;;;;;10.60;7.90;;;16.30;55.70;;;;;;4954025;29;20517;-79
2021/11/25 06:59:55;;;;;;;12.70;8.50;;;16.20;55.60;;;;;;4951839;29;20499;-79
2021/11/25 07:02:23;;;;;;;13.63;7.83;;;16.20;55.60;;;;;;4954732;28;20498;-79
2021/11/25 07:04:51;;;;;;;10.60;7.73;;;16.20;55.50;;;;;;4954596;29;20447;-78
2021/11/25 07:07:19;;;;;;;12.93;8.43;;;16.20;55.50;;;;;;4954647;28;20494;-79
2021/11/25 07:09:48;;;;;;;15.00;8.90;;;16.20;55.50;;;;;;4954664;29;20471;-79
2021/11/25 07:12:16;;;;;;;13.20;9.07;;;16.20;55.60;;;;;;4954252;28;20554;-79
2021/11/25 07:14:45;;;;;;;12.90;8.47;;;16.20;55.50;;;;;;4954449;29;20534;-79
2021/11/25 07:17:13;;;;;;;12.67;8.33;;;16.20;55.50;;;;;;4949395;28;20550;-79
2021/11/25 07:19:41;;;;;;;10.13;7.60;;;16.30;55.50;;;;;;4954080;28;20503;-79
2021/11/25 07:22:09;;;;;;;12.97;8.30;;;16.30;55.40;;;;;;4954242;28;20534;-79
2021/11/25 07:24:38;;;;;;;14.17;8.83;;;16.30;55.40;;;;;;4954197;28;20454;-79
2021/11/25 07:27:06;;;;;;;10.53;7.77;;;16.20;55.50;;;;;;4954371;29;20533;-79
2021/11/25 07:29:35;;;;;;;12.30;8.30;;;16.30;55.50;;;;;;4954253;28;20471;-79
2021/11/25 07:32:05;;;;;;;12.40;8.30;;;16.20;56.00;;;;;;4954205;28;20519;-79
2021/11/25 07:34:35;;;;;;;12.10;8.30;;;16.20;55.60;;;;;;4949439;28;20463;-79
2021/11/25 07:37:03;;;;;;;11.93;7.83;;;16.30;55.50;;;;;;4946137;29;20868;-79
2021/11/25 07:39:31;;;;;;;10.70;7.53;;;16.30;55.60;;;;;;4953674;29;20549;-79
2021/11/25 07:41:59;;;;;;;10.00;7.47;;;16.30;55.70;;;;;;4953777;28;20463;-79
2021/11/25 07:44:28;;;;;;;12.00;8.40;;;16.30;55.40;;;;;;4953521;29;20538;-78
2021/11/25 07:46:56;;;;;;;11.53;8.30;;;16.30;55.50;;;;;;4954126;29;20447;-79
2021/11/25 07:49:26;;;;;;;10.70;7.53;;;16.30;55.30;;;;;;4954066;29;20443;-79
2021/11/25 07:51:59;;;;;;;12.43;8.10;;;16.20;55.40;;;;;;4951859;28;20554;-79
2021/11/25 07:54:28;;;;;;;12.40;8.43;;;16.30;55.60;;;;;;4953636;28;20522;-79
2021/11/25 07:56:57;;;;;;;11.23;8.10;;;16.30;55.60;;;;;;4953725;29;20447;-79
2021/11/25 07:59:26;;;;;;;12.83;8.33;;;16.30;55.30;;;;;;4953880;28;20514;-79
2021/11/25 08:01:55;;;;;;;10.17;7.23;;;16.30;55.50;;;;;;4953841;28;20499;-79
2021/11/25 08:04:23;;;;;;;9.07;6.93;;;16.30;55.50;;;;;;4953928;29;20494;-79
2021/11/25 08:06:53;;;;;;;10.63;7.77;;;16.30;55.20;;;;;;4954162;28;20436;-79
2021/11/25 08:09:21;;;;;;;10.73;7.83;;;16.30;55.30;;;;;;4954764;28;20451;-79
2021/11/25 08:11:49;;;;;;;10.43;7.57;;;16.30;55.40;;;;;;4952458;28;20471;-79
2021/11/25 08:14:18;;;;;;;11.37;7.80;;;16.30;55.30;;;;;;4957817;28;20470;-79
2021/11/25 08:16:46;;;;;;;11.10;7.53;;;16.30;55.20;;;;;;4957890;29;20533;-79
2021/11/25 08:19:14;;;;;;;15.07;7.93;;;16.30;55.30;;;;;;4957878;29;20511;-79
2021/11/25 08:21:42;;;;;;;8.80;7.33;;;16.40;55.50;;;;;;4956988;29;20490;-79
2021/11/25 08:24:11;;;;;;;11.03;7.23;;;16.40;55.30;;;;;;4957500;28;20439;-79
2021/11/25 08:26:39;;;;;;;9.70;7.10;;;16.60;55.40;;;;;;4954430;28;20486;-79
2021/11/25 08:29:07;;;;;;;9.40;7.40;;;16.70;55.30;;;;;;4957305;29;20867;-79
2021/11/25 08:31:35;;;;;;;9.90;7.30;;;16.70;55.20;;;;;;4957047;28;20518;-79
2021/11/25 08:34:04;;;;;;;10.47;7.50;;;16.80;55.10;;;;;;4957241;28;20438;-79
2021/11/25 08:36:32;;;;;;;10.97;7.47;;;16.80;55.20;;;;;;4957042;29;20443;-79
2021/11/25 08:39:00;;;;;;;11.63;7.50;;;16.80;55.00;;;;;;4938509;29;20481;-79
2021/11/25 08:41:29;;;;;;;10.37;7.43;;;16.80;55.00;;;;;;4952282;29;20478;-79
2021/11/25 08:43:57;;;;;;;12.60;7.87;;;16.80;54.90;;;;;;4955028;28;20506;-79
2021/11/25 08:46:25;;;;;;;10.63;7.77;;;16.80;55.00;;;;;;4957632;29;20517;-79
2021/11/25 08:48:54;;;;;;;12.43;8.27;;;16.80;54.90;;;;;;4957464;28;20435;-79
2021/11/25 08:51:22;;;;;;;12.00;7.77;;;16.80;55.00;;;;;;4956944;28;20537;-79
2021/11/25 08:53:50;;;;;;;10.97;7.40;;;16.80;55.00;;;;;;4956964;28;20471;-79
2021/11/25 08:56:18;;;;;;;10.93;7.90;;;16.70;55.00;;;;;;4956417;28;20839;-79
2021/11/25 08:58:49;;;;;;;13.30;7.50;;;16.80;55.00;;;;;;4954432;28;20513;-79
2021/11/25 09:01:17;;;;;;;11.30;7.73;;;16.80;55.10;;;;;;4956421;28;20479;-79
2021/11/25 09:03:46;;;;;;;12.83;7.87;;;16.80;55.00;;;;;;4955994;28;20439;-79
2021/11/25 09:06:14;;;;;;;10.80;7.70;;;16.80;55.00;;;;;;4956069;28;20443;-79
2021/11/25 09:08:42;;;;;;;9.13;7.17;;;16.80;55.00;;;;;;4955207;28;21006;-79
2021/11/25 09:11:11;;;;;;;12.23;7.77;;;16.80;55.00;;;;;;4953023;29;20478;-79
2021/11/25 09:13:38;;;;;;;11.40;7.43;;;16.70;54.90;;;;;;4955720;28;20490;-79
2021/11/25 09:16:08;;;;;;;13.07;8.37;;;16.70;55.10;;;;;;4953906;28;20525;-78
2021/11/25 09:18:36;;;;;;;9.93;7.40;;;16.70;55.00;;;;;;4955793;28;20453;-79
2021/11/25 09:21:04;;;;;;;10.23;7.27;;;16.70;55.10;;;;;;4954842;28;20439;-79
2021/11/25 09:23:36;;;;;;;13.87;8.03;;;16.80;55.20;;;;;;4955261;29;20454;-79
2021/11/25 09:26:05;;;;;;;10.57;7.63;;;16.80;55.10;;;;;;4954913;28;20479;-79
2021/11/25 09:28:34;;;;;;;13.77;8.03;;;16.80;55.60;;;;;;4955148;28;20427;-79
2021/11/25 09:31:03;;;;;;;11.77;7.90;;;16.80;55.00;;;;;;4955427;29;20436;-79
2021/11/25 09:33:32;;;;;;;10.53;7.43;;;16.80;55.10;;;;;;4948012;29;20485;-79
2021/11/25 09:36:00;;;;;;;10.83;7.33;;;16.80;55.00;;;;;;4954813;29;20464;-80
2021/11/25 09:38:28;;;;;;;12.53;8.20;;;16.80;55.10;;;;;;4952342;28;20455;-79
2021/11/25 09:40:56;;;;;;;17.70;9.53;;;16.80;55.00;;;;;;4954707;28;21022;-79
2021/11/25 09:43:25;;;;;;;10.83;7.47;;;16.80;55.10;;;;;;4954712;28;21000;-79
2021/11/25 09:45:54;;;;;;;12.50;9.03;;;16.80;54.90;;;;;;4955844;28;20522;-79
2021/11/25 09:48:23;;;;;;;12.00;8.37;;;16.80;55.10;;;;;;4953705;29;20502;-79
2021/11/25 09:50:54;;;;;;;12.67;8.13;;;16.80;55.00;;;;;;4953755;29;20490;-79
2021/11/25 09:53:24;;;;;;;13.80;8.40;;;16.80;55.10;;;;;;4954540;28;20451;-79
2021/11/25 09:55:53;;;;;;;11.97;8.57;;;16.80;55.00;;;;;;4954726;28;20451;-79
2021/11/25 09:58:23;;;;;;;12.63;8.47;;;16.80;55.10;;;;;;4954972;28;20431;-79
2021/11/25 10:00:53;;;;;;;17.77;8.47;;;16.80;54.90;;;;;;4954418;28;20559;-79
2021/11/25 10:03:21;;;;;;;11.73;8.00;;;16.80;54.90;;;;;;4954329;29;20494;-79
2021/11/25 10:05:50;;;;;;;12.43;8.10;;;16.70;55.00;;;;;;4952907;29;20555;-79
2021/11/25 10:08:27;;;;;;;11.90;8.00;;;16.80;55.10;;;;;;4954053;28;20546;-79
2021/11/25 10:10:58;;;;;;;12.30;8.70;;;16.80;55.10;;;;;;4953114;29;20431;-79
2021/11/25 10:13:37;;;;;;;11.73;8.23;;;16.80;55.00;;;;;;4951855;28;20447;-79
2021/11/25 10:16:08;;;;;;;11.97;8.53;;;16.70;55.00;;;;;;4954500;29;20470;-79
2021/11/25 10:18:36;;;;;;;12.20;8.30;;;16.70;55.00;;;;;;4954541;28;20523;-79
2021/11/25 10:21:06;;;;;;;10.90;8.10;;;16.70;55.10;;;;;;4954497;28;20502;-79
2021/11/25 10:23:36;;;;;;;13.80;8.80;;;16.70;55.20;;;;;;4952411;28;20477;-79
2021/11/25 10:26:06;;;;;;;12.17;8.70;;;16.70;55.20;;;;;;4954485;28;20537;-79
2021/11/25 10:28:39;;;;;;;11.70;9.00;;;16.60;55.10;;;;;;4954667;28;20471;-79
2021/11/25 10:31:13;;;;;;;12.20;8.87;;;16.60;55.20;;;;;;4955694;28;20528;-79
2021/11/25 10:36:55;;;;;;;11.80;8.17;;;16.60;55.20;;;;;;4954629;28;20462;-78
2021/11/25 10:39:29;;;;;;;13.87;8.97;;;16.60;55.30;;;;;;4949648;28;20479;-79
2021/11/25 10:42:00;;;;;;;13.40;8.53;;;16.60;55.20;;;;;;4954615;28;20486;-79
2021/11/25 10:44:28;;;;;;;13.67;8.83;;;16.60;55.40;;;;;;4954327;28;20510;-79
2021/11/25 10:47:01;;;;;;;14.07;8.77;;;16.60;55.50;;;;;;4955146;28;20526;-79
2021/11/25 10:49:40;;;;;;;11.43;8.17;;;16.60;55.30;;;;;;4951903;29;20486;-80
2021/11/25 10:52:10;;;;;;;13.37;8.80;;;16.60;55.30;;;;;;4955152;29;20546;-79
2021/11/25 10:54:44;;;;;;;13.17;8.87;;;16.60;55.40;;;;;;4954387;29;20498;-81
2021/11/25 10:57:13;;;;;;;15.10;9.83;;;16.60;55.40;;;;;;4954488;29;20499;-79
2021/11/25 10:59:42;;;;;;;15.40;10.00;;;16.60;55.40;;;;;;4954144;28;20529;-79
2021/11/25 11:02:29;;;;;;;13.50;9.63;;;16.60;55.30;;;;;;4953994;28;20883;-79
2021/11/25 11:04:59;;;;;;;14.40;9.50;;;16.60;55.60;;;;;;4945584;28;20518;-78
2021/11/25 11:07:29;;;;;;;16.30;10.00;;;16.60;55.20;;;;;;4947107;28;20447;-78
2021/11/25 11:09:59;;;;;;;15.13;10.00;;;16.70;55.20;;;;;;4950108;28;20533;-78
2021/11/25 11:12:33;;;;;;;13.83;9.40;;;16.70;55.40;;;;;;4945765;28;21046;-79
2021/11/25 11:15:13;;;;;;;13.30;9.70;;;16.80;55.30;;;;;;4949200;28;20494;-78
2021/11/25 11:17:59;;;;;;;15.43;9.57;;;16.90;55.20;;;;;;4945815;28;20491;-80
2021/11/25 11:20:27;;;;;;;15.63;9.43;;;16.90;55.00;;;;;;4951197;28;20478;-80
2021/11/25 11:22:57;;;;;;;13.10;9.10;;;16.90;55.00;;;;;;4952903;28;20531;-79
2021/11/25 11:25:27;;;;;;;13.77;9.90;;;16.90;55.10;;;;;;4950321;28;20443;-80
2021/11/25 11:27:57;;;;;;;14.40;9.97;;;16.90;55.10;;;;;;4953893;28;20479;-79
2021/11/25 11:30:25;;;;;;;14.50;9.70;;;16.90;55.20;;;;;;4951706;28;20447;-79
2021/11/25 11:32:54;;;;;;;15.10;9.57;;;16.90;55.30;;;;;;4958008;28;20498;-79
2021/11/25 11:35:23;;;;;;;17.50;10.37;;;16.90;55.20;;;;;;4958689;28;20491;-80
2021/11/25 11:37:52;;;;;;;14.63;9.00;;;16.80;55.20;;;;;;4961058;28;20468;-79
2021/11/25 11:40:22;;;;;;;12.60;9.30;;;16.80;55.30;;;;;;4956620;28;20522;-79
2021/11/25 11:42:53;;;;;;;18.20;10.77;;;16.80;55.40;;;;;;4954081;28;20491;-79
2021/11/25 11:45:22;;;;;;;14.47;9.93;;;16.80;55.40;;;;;;4959425;29;20494;-79
2021/11/25 11:47:52;;;;;;;14.73;9.33;;;16.90;55.50;;;;;;4956517;28;20451;-80
2021/11/25 11:50:28;;;;;;;17.23;10.33;;;16.80;55.50;;;;;;4958237;28;20498;-79
2021/11/25 11:52:58;;;;;;;11.97;9.40;;;16.80;55.60;;;;;;4965180;28;20494;-80
2021/11/25 11:55:35;;;;;;;15.50;9.97;;;16.90;55.60;;;;;;4966146;28;20454;-78
2021/11/25 11:58:27;;;;;;;18.43;10.67;;;16.90;55.60;;;;;;4967545;28;20463;-78
2021/11/25 12:00:56;;;;;;;13.93;9.43;;;16.90;55.60;;;;;;4964870;29;20507;-80
2021/11/25 12:03:42;;;;;;;16.80;9.70;;;16.80;55.60;;;;;;4958830;28;20498;-79
2021/11/25 12:06:10;;;;;;;14.83;8.83;;;16.80;55.70;;;;;;4962436;28;20966;-79
2021/11/25 12:08:45;;;;;;;14.57;8.70;;;16.90;55.90;;;;;;4958946;28;20451;-78
2021/11/25 12:11:18;;;;;;;13.67;9.33;;;16.90;55.80;;;;;;4962475;28;20443;-80
2021/11/25 12:14:15;;;;;;;16.17;9.50;;;16.90;55.80;;;;;;4958813;29;20447;-78
2021/11/25 12:16:49;;;;;;;13.57;8.70;;;16.90;55.80;;;;;;4962180;28;20458;-79
2021/11/25 12:19:30;;;;;;;13.80;9.30;;;16.90;55.90;;;;;;4957359;28;20466;-79
2021/11/25 12:22:00;;;;;;;14.00;9.00;;;16.90;55.80;;;;;;4963250;28;20522;-79
2021/11/25 12:24:32;;;;;;;13.23;8.67;;;17.00;55.90;;;;;;4962112;28;20470;-78
2021/11/25 12:27:12;;;;;;;12.10;8.53;;;17.00;56.00;;;;;;4960638;28;20465;-79
2021/11/25 12:29:48;;;;;;;12.30;8.43;;;17.00;56.00;;;;;;4958166;28;20507;-79
2021/11/25 12:32:28;;;;;;;10.50;8.20;;;17.00;56.40;;;;;;4960405;28;20490;-79
2021/11/25 12:35:01;;;;;;;12.30;8.43;;;17.00;55.80;;;;;;4960619;28;20434;-79
2021/11/25 12:38:00;;;;;;;11.83;8.73;;;17.00;56.10;;;;;;4963033;28;20451;-80
2021/11/25 12:40:52;;;;;;;14.30;8.40;;;17.00;55.80;;;;;;4898573;29;20489;-80
2021/11/25 12:43:21;;;;;;;10.30;8.27;;;17.10;56.00;;;;;;4955768;28;20479;-79
2021/11/25 12:45:51;;;;;;;13.47;8.70;;;17.10;55.90;;;;;;4961505;28;20450;-79
2021/11/25 12:48:24;;;;;;;12.90;8.67;;;17.10;56.00;;;;;;4959892;28;20455;-79
2021/11/25 12:50:55;;;;;;;11.60;8.53;;;17.20;56.60;;;;;;4963837;28;20451;-80
2021/11/25 12:53:25;;;;;;;13.00;8.73;;;17.10;56.00;;;;;;4959314;28;20511;-79
2021/11/25 12:55:55;;;;;;;14.00;8.70;;;17.20;55.90;;;;;;4961630;28;20513;-79
2021/11/25 12:58:34;;;;;;;13.37;8.30;;;17.30;56.10;;;;;;4959161;29;20482;-79
2021/11/25 13:01:04;;;;;;;11.93;8.33;;;17.30;55.80;;;;;;4960138;28;20477;-79
2021/11/25 13:03:32;;;;;;;11.90;8.57;;;17.30;55.80;;;;;;4956218;28;20517;-77